sensor_id;sensor_type;location;lat;lon;timestamp;P1;durP1;ratioP1;P2;durP2;ratioP2
69213;SDS011;56325;47.030;18.518;2023-02-15T00:01:04;11.67;;;8.67;;
69213;SDS011;56325;47.030;18.518;2023-02-15T00:03:40;10.40;;;7.87;;
69213;SDS011;56325;47.030;18.518;2023-02-15T00:06:15;13.00;;;9.10;;
69213;SDS011;56325;47.030;18.518;2023-02-15T00:08:51;22.23;;;9.10;;
69213;SDS011;56325;47.030;18.518;2023-02-15T00:11:25;12.43;;;8.40;;
69213;SDS011;56325;47.030;18.518;2023-02-15T00:14:23;11.97;;;8.43;;
69213;SDS011;56325;47.030;18.518;2023-02-15T00:16:57;12.97;;;9.07;;
69213;SDS011;56325;47.030;18.518;2023-02-15T00:19:32;16.50;;;9.73;;
69213;SDS011;56325;47.030;18.518;2023-02-15T00:22:08;17.27;;;10.37;;
69213;SDS011;56325;47.030;18.518;2023-02-15T00:24:42;16.73;;;10.53;;
69213;SDS011;56325;47.030;18.518;2023-02-15T00:27:16;14.83;;;9.57;;
69213;SDS011;56325;47.030;18.518;2023-02-15T00:29:52;14.03;;;9.47;;
69213;SDS011;56325;47.030;18.518;2023-02-15T00:32:26;15.87;;;10.37;;
69213;SDS011;56325;47.030;18.518;2023-02-15T00:35:00;12.73;;;9.27;;
69213;SDS011;56325;47.030;18.518;2023-02-15T00:37:36;14.27;;;9.97;;
69213;SDS011;56325;47.030;18.518;2023-02-15T00:40:11;14.67;;;8.50;;
69213;SDS011;56325;47.030;18.518;2023-02-15T00:42:47;13.47;;;8.70;;
69213;SDS011;56325;47.030;18.518;2023-02-15T00:45:22;14.13;;;8.57;;
69213;SDS011;56325;47.030;18.518;2023-02-15T00:47:56;9.37;;;8.03;;
69213;SDS011;56325;47.030;18.518;2023-02-15T00:50:31;22.87;;;7.83;;
69213;SDS011;56325;47.030;18.518;2023-02-15T00:53:06;13.80;;;8.63;;
69213;SDS011;56325;47.030;18.518;2023-02-15T00:55:41;11.03;;;7.67;;
69213;SDS011;56325;47.030;18.518;2023-02-15T00:58:16;12.43;;;9.03;;
69213;SDS011;56325;47.030;18.518;2023-02-15T01:00:51;15.67;;;8.80;;
69213;SDS011;56325;47.030;18.518;2023-02-15T01:03:28;15.73;;;9.37;;
69213;SDS011;56325;47.030;18.518;2023-02-15T01:06:03;16.73;;;9.60;;
69213;SDS011;56325;47.030;18.518;2023-02-15T01:08:39;14.67;;;8.87;;
69213;SDS011;56325;47.030;18.518;2023-02-15T01:11:14;12.80;;;9.60;;
69213;SDS011;56325;47.030;18.518;2023-02-15T01:16:30;14.77;;;9.40;;
69213;SDS011;56325;47.030;18.518;2023-02-15T01:19:04;13.83;;;9.33;;
69213;SDS011;56325;47.030;18.518;2023-02-15T01:21:39;12.47;;;8.37;;
69213;SDS011;56325;47.030;18.518;2023-02-15T01:24:15;16.40;;;9.30;;
69213;SDS011;56325;47.030;18.518;2023-02-15T01:26:50;15.60;;;10.37;;
69213;SDS011;56325;47.030;18.518;2023-02-15T01:29:25;14.60;;;9.73;;
69213;SDS011;56325;47.030;18.518;2023-02-15T01:31:59;18.50;;;10.73;;
69213;SDS011;56325;47.030;18.518;2023-02-15T01:34:34;17.70;;;10.03;;
69213;SDS011;56325;47.030;18.518;2023-02-15T01:37:08;14.37;;;9.37;;
69213;SDS011;56325;47.030;18.518;2023-02-15T01:39:44;19.33;;;9.33;;
69213;SDS011;56325;47.030;18.518;2023-02-15T01:42:20;16.60;;;10.97;;
69213;SDS011;56325;47.030;18.518;2023-02-15T01:44:56;23.93;;;11.20;;
69213;SDS011;56325;47.030;18.518;2023-02-15T01:47:33;16.37;;;10.20;;
69213;SDS011;56325;47.030;18.518;2023-02-15T01:50:13;16.23;;;9.63;;
69213;SDS011;56325;47.030;18.518;2023-02-15T01:52:52;16.43;;;9.60;;
69213;SDS011;56325;47.030;18.518;2023-02-15T01:55:34;12.82;;;8.82;;
69213;SDS011;56325;47.030;18.518;2023-02-15T01:58:13;16.97;;;10.03;;
69213;SDS011;56325;47.030;18.518;2023-02-15T02:00:48;18.10;;;10.17;;
69213;SDS011;56325;47.030;18.518;2023-02-15T02:03:24;13.27;;;9.40;;
69213;SDS011;56325;47.030;18.518;2023-02-15T02:06:08;15.93;;;10.23;;
69213;SDS011;56325;47.030;18.518;2023-02-15T02:08:44;12.70;;;9.47;;
69213;SDS011;56325;47.030;18.518;2023-02-15T02:11:21;16.20;;;10.57;;
69213;SDS011;56325;47.030;18.518;2023-02-15T02:13:55;30.53;;;9.97;;
69213;SDS011;56325;47.030;18.518;2023-02-15T02:16:32;12.57;;;8.53;;
69213;SDS011;56325;47.030;18.518;2023-02-15T02:19:19;15.97;;;9.50;;
69213;SDS011;56325;47.030;18.518;2023-02-15T02:25:38;15.60;;;9.47;;
69213;SDS011;56325;47.030;18.518;2023-02-15T02:28:32;16.43;;;9.67;;
69213;SDS011;56325;47.030;18.518;2023-02-15T02:31:31;17.47;;;8.57;;
69213;SDS011;56325;47.030;18.518;2023-02-15T02:34:19;14.13;;;8.77;;
69213;SDS011;56325;47.030;18.518;2023-02-15T02:37:03;9.60;;;7.83;;
69213;SDS011;56325;47.030;18.518;2023-02-15T02:39:49;14.77;;;9.50;;
69213;SDS011;56325;47.030;18.518;2023-02-15T02:42:30;11.70;;;8.97;;
69213;SDS011;56325;47.030;18.518;2023-02-15T02:45:11;24.25;;;8.88;;
69213;SDS011;56325;47.030;18.518;2023-02-15T02:47:50;18.40;;;9.57;;
69213;SDS011;56325;47.030;18.518;2023-02-15T02:50:31;13.17;;;9.90;;
69213;SDS011;56325;47.030;18.518;2023-02-15T02:53:05;19.60;;;11.30;;
69213;SDS011;56325;47.030;18.518;2023-02-15T02:55:40;30.73;;;11.77;;
69213;SDS011;56325;47.030;18.518;2023-02-15T02:58:19;19.93;;;10.27;;
69213;SDS011;56325;47.030;18.518;2023-02-15T03:00:59;13.87;;;10.20;;
69213;SDS011;56325;47.030;18.518;2023-02-15T03:03:39;24.57;;;12.33;;
69213;SDS011;56325;47.030;18.518;2023-02-15T03:06:19;15.77;;;10.50;;
69213;SDS011;56325;47.030;18.518;2023-02-15T03:09:03;12.67;;;9.73;;
69213;SDS011;56325;47.030;18.518;2023-02-15T03:11:46;19.40;;;9.30;;
69213;SDS011;56325;47.030;18.518;2023-02-15T03:14:22;17.27;;;9.97;;
69213;SDS011;56325;47.030;18.518;2023-02-15T03:16:57;18.73;;;9.13;;
69213;SDS011;56325;47.030;18.518;2023-02-15T03:19:33;10.20;;;7.70;;
69213;SDS011;56325;47.030;18.518;2023-02-15T03:22:12;16.90;;;9.60;;
69213;SDS011;56325;47.030;18.518;2023-02-15T03:24:53;20.63;;;9.20;;
69213;SDS011;56325;47.030;18.518;2023-02-15T03:27:31;15.27;;;8.90;;
69213;SDS011;56325;47.030;18.518;2023-02-15T03:30:10;18.37;;;9.60;;
69213;SDS011;56325;47.030;18.518;2023-02-15T03:32:47;12.67;;;9.43;;
69213;SDS011;56325;47.030;18.518;2023-02-15T03:35:24;12.47;;;9.17;;
69213;SDS011;56325;47.030;18.518;2023-02-15T03:38:06;17.65;;;9.93;;
69213;SDS011;56325;47.030;18.518;2023-02-15T03:40:43;14.60;;;8.27;;
69213;SDS011;56325;47.030;18.518;2023-02-15T03:43:40;14.77;;;9.77;;
69213;SDS011;56325;47.030;18.518;2023-02-15T03:46:22;14.73;;;9.33;;
69213;SDS011;56325;47.030;18.518;2023-02-15T03:51:39;16.53;;;8.27;;
69213;SDS011;56325;47.030;18.518;2023-02-15T03:54:18;12.07;;;8.97;;
69213;SDS011;56325;47.030;18.518;2023-02-15T03:57:10;17.43;;;9.63;;
69213;SDS011;56325;47.030;18.518;2023-02-15T04:00:05;21.90;;;9.23;;
69213;SDS011;56325;47.030;18.518;2023-02-15T04:03:08;18.10;;;9.27;;
69213;SDS011;56325;47.030;18.518;2023-02-15T04:05:46;14.50;;;9.57;;
69213;SDS011;56325;47.030;18.518;2023-02-15T04:08:21;14.90;;;10.27;;
69213;SDS011;56325;47.030;18.518;2023-02-15T04:11:16;12.70;;;8.47;;
69213;SDS011;56325;47.030;18.518;2023-02-15T04:13:50;15.70;;;9.43;;
69213;SDS011;56325;47.030;18.518;2023-02-15T04:16:29;24.23;;;9.87;;
69213;SDS011;56325;47.030;18.518;2023-02-15T04:19:03;17.30;;;9.10;;
69213;SDS011;56325;47.030;18.518;2023-02-15T04:21:54;18.60;;;9.67;;
69213;SDS011;56325;47.030;18.518;2023-02-15T04:24:47;26.77;;;12.80;;
69213;SDS011;56325;47.030;18.518;2023-02-15T04:27:41;13.53;;;8.90;;
69213;SDS011;56325;47.030;18.518;2023-02-15T04:30:17;21.00;;;11.80;;
69213;SDS011;56325;47.030;18.518;2023-02-15T04:32:53;28.10;;;14.00;;
69213;SDS011;56325;47.030;18.518;2023-02-15T04:35:27;127.67;;;76.93;;
69213;SDS011;56325;47.030;18.518;2023-02-15T04:38:04;43.27;;;16.83;;
69213;SDS011;56325;47.030;18.518;2023-02-15T04:40:38;30.13;;;14.83;;
69213;SDS011;56325;47.030;18.518;2023-02-15T04:43:14;33.40;;;15.20;;
69213;SDS011;56325;47.030;18.518;2023-02-15T04:45:49;31.03;;;15.73;;
69213;SDS011;56325;47.030;18.518;2023-02-15T04:48:23;29.57;;;15.80;;
69213;SDS011;56325;47.030;18.518;2023-02-15T04:50:58;34.20;;;16.53;;
69213;SDS011;56325;47.030;18.518;2023-02-15T04:53:32;24.07;;;13.47;;
69213;SDS011;56325;47.030;18.518;2023-02-15T04:56:07;22.87;;;13.27;;
69213;SDS011;56325;47.030;18.518;2023-02-15T04:58:42;22.90;;;12.90;;
69213;SDS011;56325;47.030;18.518;2023-02-15T05:01:17;30.20;;;13.03;;
69213;SDS011;56325;47.030;18.518;2023-02-15T05:03:52;21.20;;;12.07;;
69213;SDS011;56325;47.030;18.518;2023-02-15T05:06:26;28.17;;;12.97;;
69213;SDS011;56325;47.030;18.518;2023-02-15T05:09:01;29.13;;;13.80;;
69213;SDS011;56325;47.030;18.518;2023-02-15T05:11:35;19.07;;;10.23;;
69213;SDS011;56325;47.030;18.518;2023-02-15T05:14:11;12.07;;;9.73;;
69213;SDS011;56325;47.030;18.518;2023-02-15T05:16:46;23.73;;;13.00;;
69213;SDS011;56325;47.030;18.518;2023-02-15T05:19:20;103.33;;;69.03;;
69213;SDS011;56325;47.030;18.518;2023-02-15T05:21:55;20.30;;;12.83;;
69213;SDS011;56325;47.030;18.518;2023-02-15T05:24:30;35.10;;;14.63;;
69213;SDS011;56325;47.030;18.518;2023-02-15T05:27:22;25.27;;;11.43;;
69213;SDS011;56325;47.030;18.518;2023-02-15T05:30:15;20.80;;;11.63;;
69213;SDS011;56325;47.030;18.518;2023-02-15T05:32:50;23.37;;;11.80;;
69213;SDS011;56325;47.030;18.518;2023-02-15T05:35:24;28.33;;;16.40;;
69213;SDS011;56325;47.030;18.518;2023-02-15T05:38:04;21.33;;;12.80;;
69213;SDS011;56325;47.030;18.518;2023-02-15T05:40:38;24.57;;;12.10;;
69213;SDS011;56325;47.030;18.518;2023-02-15T05:43:15;18.00;;;11.50;;
69213;SDS011;56325;47.030;18.518;2023-02-15T05:45:50;19.20;;;11.07;;
69213;SDS011;56325;47.030;18.518;2023-02-15T05:48:27;25.17;;;12.63;;
69213;SDS011;56325;47.030;18.518;2023-02-15T05:51:02;21.80;;;12.10;;
69213;SDS011;56325;47.030;18.518;2023-02-15T05:53:38;20.13;;;11.90;;
69213;SDS011;56325;47.030;18.518;2023-02-15T05:56:13;27.03;;;14.70;;
69213;SDS011;56325;47.030;18.518;2023-02-15T05:58:47;29.03;;;15.70;;
69213;SDS011;56325;47.030;18.518;2023-02-15T06:01:23;76.70;;;27.03;;
69213;SDS011;56325;47.030;18.518;2023-02-15T06:03:57;49.80;;;22.90;;
69213;SDS011;56325;47.030;18.518;2023-02-15T06:06:32;147.87;;;52.07;;
69213;SDS011;56325;47.030;18.518;2023-02-15T06:09:07;52.07;;;25.83;;
69213;SDS011;56325;47.030;18.518;2023-02-15T06:11:41;38.13;;;17.13;;
69213;SDS011;56325;47.030;18.518;2023-02-15T06:14:16;25.90;;;15.23;;
69213;SDS011;56325;47.030;18.518;2023-02-15T06:16:52;30.60;;;15.97;;
69213;SDS011;56325;47.030;18.518;2023-02-15T06:19:26;26.17;;;14.50;;
69213;SDS011;56325;47.030;18.518;2023-02-15T06:22:00;28.23;;;14.30;;
69213;SDS011;56325;47.030;18.518;2023-02-15T06:24:35;38.53;;;15.93;;
69213;SDS011;56325;47.030;18.518;2023-02-15T06:27:09;27.57;;;13.83;;
69213;SDS011;56325;47.030;18.518;2023-02-15T06:29:44;21.53;;;13.27;;
69213;SDS011;56325;47.030;18.518;2023-02-15T06:32:20;30.53;;;14.40;;
69213;SDS011;56325;47.030;18.518;2023-02-15T06:34:54;28.53;;;14.27;;
69213;SDS011;56325;47.030;18.518;2023-02-15T06:37:28;33.10;;;15.67;;
69213;SDS011;56325;47.030;18.518;2023-02-15T06:40:03;26.57;;;16.60;;
69213;SDS011;56325;47.030;18.518;2023-02-15T06:42:38;36.10;;;17.30;;
69213;SDS011;56325;47.030;18.518;2023-02-15T06:45:13;57.40;;;23.40;;
69213;SDS011;56325;47.030;18.518;2023-02-15T06:47:49;56.37;;;25.80;;
69213;SDS011;56325;47.030;18.518;2023-02-15T06:50:24;59.70;;;22.67;;
69213;SDS011;56325;47.030;18.518;2023-02-15T06:52:58;97.60;;;34.20;;
69213;SDS011;56325;47.030;18.518;2023-02-15T06:55:33;76.43;;;32.93;;
69213;SDS011;56325;47.030;18.518;2023-02-15T06:58:07;95.77;;;35.03;;
69213;SDS011;56325;47.030;18.518;2023-02-15T07:03:23;32.72;;;17.85;;
69213;SDS011;56325;47.030;18.518;2023-02-15T07:05:59;25.50;;;16.10;;
69213;SDS011;56325;47.030;18.518;2023-02-15T07:08:36;33.60;;;15.83;;
69213;SDS011;56325;47.030;18.518;2023-02-15T07:11:11;30.67;;;17.10;;
69213;SDS011;56325;47.030;18.518;2023-02-15T07:14:03;75.77;;;27.20;;
69213;SDS011;56325;47.030;18.518;2023-02-15T07:16:38;149.20;;;44.17;;
69213;SDS011;56325;47.030;18.518;2023-02-15T07:19:13;166.97;;;59.40;;
69213;SDS011;56325;47.030;18.518;2023-02-15T07:21:48;237.63;;;69.60;;
69213;SDS011;56325;47.030;18.518;2023-02-15T07:24:22;152.97;;;46.93;;
69213;SDS011;56325;47.030;18.518;2023-02-15T07:26:57;200.60;;;63.03;;
69213;SDS011;56325;47.030;18.518;2023-02-15T07:29:31;171.87;;;55.00;;
69213;SDS011;56325;47.030;18.518;2023-02-15T07:32:06;139.93;;;41.53;;
69213;SDS011;56325;47.030;18.518;2023-02-15T07:34:42;151.60;;;42.53;;
69213;SDS011;56325;47.030;18.518;2023-02-15T07:37:16;163.00;;;47.80;;
69213;SDS011;56325;47.030;18.518;2023-02-15T07:39:50;150.33;;;44.27;;
69213;SDS011;56325;47.030;18.518;2023-02-15T07:42:25;127.60;;;44.67;;
69213;SDS011;56325;47.030;18.518;2023-02-15T07:45:00;72.73;;;29.20;;
69213;SDS011;56325;47.030;18.518;2023-02-15T07:47:34;70.73;;;25.30;;
69213;SDS011;56325;47.030;18.518;2023-02-15T07:50:10;75.63;;;28.80;;
69213;SDS011;56325;47.030;18.518;2023-02-15T07:52:44;59.13;;;26.40;;
69213;SDS011;56325;47.030;18.518;2023-02-15T07:55:19;43.43;;;17.73;;
69213;SDS011;56325;47.030;18.518;2023-02-15T07:57:54;31.97;;;17.03;;
69213;SDS011;56325;47.030;18.518;2023-02-15T08:00:28;33.77;;;16.60;;
69213;SDS011;56325;47.030;18.518;2023-02-15T08:03:02;32.57;;;15.90;;
69213;SDS011;56325;47.030;18.518;2023-02-15T08:05:50;23.67;;;13.27;;
69213;SDS011;56325;47.030;18.518;2023-02-15T08:08:26;27.17;;;13.10;;
69213;SDS011;56325;47.030;18.518;2023-02-15T08:11:04;28.20;;;14.63;;
69213;SDS011;56325;47.030;18.518;2023-02-15T08:13:58;24.97;;;13.53;;
69213;SDS011;56325;47.030;18.518;2023-02-15T08:16:35;24.43;;;15.30;;
69213;SDS011;56325;47.030;18.518;2023-02-15T08:19:12;29.57;;;16.33;;
69213;SDS011;56325;47.030;18.518;2023-02-15T08:21:50;41.63;;;16.60;;
69213;SDS011;56325;47.030;18.518;2023-02-15T08:24:26;25.83;;;13.27;;
69213;SDS011;56325;47.030;18.518;2023-02-15T08:27:02;23.50;;;14.03;;
69213;SDS011;56325;47.030;18.518;2023-02-15T08:29:38;18.97;;;12.37;;
69213;SDS011;56325;47.030;18.518;2023-02-15T08:32:14;28.83;;;13.67;;
69213;SDS011;56325;47.030;18.518;2023-02-15T08:34:49;26.43;;;14.10;;
69213;SDS011;56325;47.030;18.518;2023-02-15T08:37:25;29.30;;;14.10;;
69213;SDS011;56325;47.030;18.518;2023-02-15T08:40:00;27.40;;;13.53;;
69213;SDS011;56325;47.030;18.518;2023-02-15T08:42:35;25.63;;;14.33;;
69213;SDS011;56325;47.030;18.518;2023-02-15T08:45:09;21.37;;;13.40;;
69213;SDS011;56325;47.030;18.518;2023-02-15T08:47:43;18.33;;;11.60;;
69213;SDS011;56325;47.030;18.518;2023-02-15T08:50:18;27.43;;;11.63;;
69213;SDS011;56325;47.030;18.518;2023-02-15T08:52:54;21.57;;;12.57;;
69213;SDS011;56325;47.030;18.518;2023-02-15T08:55:30;28.47;;;12.70;;
69213;SDS011;56325;47.030;18.518;2023-02-15T08:58:05;18.97;;;12.23;;
69213;SDS011;56325;47.030;18.518;2023-02-15T09:00:39;22.70;;;11.20;;
69213;SDS011;56325;47.030;18.518;2023-02-15T09:03:13;23.30;;;13.00;;
69213;SDS011;56325;47.030;18.518;2023-02-15T09:05:48;29.27;;;13.03;;
69213;SDS011;56325;47.030;18.518;2023-02-15T09:08:24;19.80;;;11.80;;
69213;SDS011;56325;47.030;18.518;2023-02-15T09:11:06;21.50;;;12.53;;
69213;SDS011;56325;47.030;18.518;2023-02-15T09:13:42;20.93;;;10.87;;
69213;SDS011;56325;47.030;18.518;2023-02-15T09:16:18;24.87;;;15.10;;
69213;SDS011;56325;47.030;18.518;2023-02-15T09:18:52;26.67;;;14.00;;
69213;SDS011;56325;47.030;18.518;2023-02-15T09:21:27;32.30;;;16.43;;
69213;SDS011;56325;47.030;18.518;2023-02-15T09:24:04;30.07;;;14.73;;
69213;SDS011;56325;47.030;18.518;2023-02-15T09:26:41;21.97;;;13.83;;
69213;SDS011;56325;47.030;18.518;2023-02-15T09:29:18;23.40;;;13.10;;
69213;SDS011;56325;47.030;18.518;2023-02-15T09:31:53;26.47;;;14.73;;
69213;SDS011;56325;47.030;18.518;2023-02-15T09:34:27;19.50;;;12.53;;
69213;SDS011;56325;47.030;18.518;2023-02-15T09:37:06;31.07;;;15.10;;
69213;SDS011;56325;47.030;18.518;2023-02-15T09:39:42;37.43;;;13.87;;
69213;SDS011;56325;47.030;18.518;2023-02-15T09:42:31;20.97;;;11.93;;
69213;SDS011;56325;47.030;18.518;2023-02-15T09:45:31;18.90;;;11.47;;
69213;SDS011;56325;47.030;18.518;2023-02-15T09:48:22;16.63;;;10.30;;
69213;SDS011;56325;47.030;18.518;2023-02-15T09:54:21;14.13;;;8.97;;
69213;SDS011;56325;47.030;18.518;2023-02-15T09:57:10;18.07;;;9.10;;
69213;SDS011;56325;47.030;18.518;2023-02-15T09:59:56;15.03;;;10.50;;
69213;SDS011;56325;47.030;18.518;2023-02-15T10:02:52;11.70;;;8.47;;
69213;SDS011;56325;47.030;18.518;2023-02-15T10:05:43;10.50;;;8.50;;
69213;SDS011;56325;47.030;18.518;2023-02-15T10:11:40;13.07;;;8.00;;
69213;SDS011;56325;47.030;18.518;2023-02-15T10:18:01;8.97;;;7.47;;
69213;SDS011;56325;47.030;18.518;2023-02-15T10:20:50;10.13;;;8.33;;
69213;SDS011;56325;47.030;18.518;2023-02-15T10:23:36;8.20;;;6.83;;
69213;SDS011;56325;47.030;18.518;2023-02-15T10:26:19;10.17;;;7.90;;
69213;SDS011;56325;47.030;18.518;2023-02-15T10:28:57;8.10;;;6.20;;
69213;SDS011;56325;47.030;18.518;2023-02-15T10:31:37;7.70;;;6.80;;
69213;SDS011;56325;47.030;18.518;2023-02-15T10:34:18;11.93;;;8.13;;
69213;SDS011;56325;47.030;18.518;2023-02-15T10:37:04;9.43;;;7.03;;
69213;SDS011;56325;47.030;18.518;2023-02-15T10:39:55;6.93;;;6.33;;
69213;SDS011;56325;47.030;18.518;2023-02-15T10:42:39;8.93;;;6.23;;
69213;SDS011;56325;47.030;18.518;2023-02-15T10:45:25;10.27;;;6.93;;
69213;SDS011;56325;47.030;18.518;2023-02-15T10:48:20;10.40;;;6.33;;
69213;SDS011;56325;47.030;18.518;2023-02-15T10:53:49;17.93;;;12.77;;
69213;SDS011;56325;47.030;18.518;2023-02-15T10:56:36;46.88;;;32.20;;
69213;SDS011;56325;47.030;18.518;2023-02-15T10:59:22;12.17;;;7.87;;
69213;SDS011;56325;47.030;18.518;2023-02-15T11:02:12;31.10;;;14.07;;
69213;SDS011;56325;47.030;18.518;2023-02-15T11:04:57;12.83;;;8.53;;
69213;SDS011;56325;47.030;18.518;2023-02-15T11:07:41;16.47;;;8.03;;
69213;SDS011;56325;47.030;18.518;2023-02-15T11:10:23;9.67;;;8.17;;
69213;SDS011;56325;47.030;18.518;2023-02-15T11:13:04;10.93;;;8.43;;
69213;SDS011;56325;47.030;18.518;2023-02-15T11:15:43;12.00;;;8.13;;
69213;SDS011;56325;47.030;18.518;2023-02-15T11:18:23;10.03;;;7.37;;
69213;SDS011;56325;47.030;18.518;2023-02-15T11:21:06;10.83;;;8.17;;
69213;SDS011;56325;47.030;18.518;2023-02-15T11:23:44;17.63;;;8.80;;
69213;SDS011;56325;47.030;18.518;2023-02-15T11:26:21;9.73;;;7.90;;
69213;SDS011;56325;47.030;18.518;2023-02-15T11:29:02;16.50;;;9.33;;
69213;SDS011;56325;47.030;18.518;2023-02-15T11:31:44;12.30;;;9.00;;
69213;SDS011;56325;47.030;18.518;2023-02-15T11:34:23;15.67;;;8.30;;
69213;SDS011;56325;47.030;18.518;2023-02-15T11:37:06;12.30;;;8.17;;
69213;SDS011;56325;47.030;18.518;2023-02-15T11:39:45;11.60;;;8.43;;
69213;SDS011;56325;47.030;18.518;2023-02-15T11:42:24;11.37;;;7.67;;
69213;SDS011;56325;47.030;18.518;2023-02-15T11:45:02;9.70;;;8.13;;
69213;SDS011;56325;47.030;18.518;2023-02-15T11:47:49;12.97;;;8.03;;
69213;SDS011;56325;47.030;18.518;2023-02-15T11:50:26;9.23;;;7.77;;
69213;SDS011;56325;47.030;18.518;2023-02-15T11:53:03;9.27;;;7.77;;
69213;SDS011;56325;47.030;18.518;2023-02-15T11:55:40;10.60;;;8.10;;
69213;SDS011;56325;47.030;18.518;2023-02-15T11:58:21;119.17;;;74.97;;
69213;SDS011;56325;47.030;18.518;2023-02-15T12:01:04;173.37;;;118.30;;
69213;SDS011;56325;47.030;18.518;2023-02-15T12:03:50;18.23;;;9.50;;
69213;SDS011;56325;47.030;18.518;2023-02-15T12:06:26;14.93;;;8.83;;
69213;SDS011;56325;47.030;18.518;2023-02-15T12:09:05;17.23;;;9.40;;
69213;SDS011;56325;47.030;18.518;2023-02-15T12:11:47;16.07;;;9.77;;
69213;SDS011;56325;47.030;18.518;2023-02-15T12:14:22;14.73;;;8.07;;
69213;SDS011;56325;47.030;18.518;2023-02-15T12:16:56;10.80;;;8.87;;
69213;SDS011;56325;47.030;18.518;2023-02-15T12:19:31;9.50;;;8.03;;
69213;SDS011;56325;47.030;18.518;2023-02-15T12:22:18;12.97;;;7.63;;
69213;SDS011;56325;47.030;18.518;2023-02-15T12:24:58;9.30;;;8.33;;
69213;SDS011;56325;47.030;18.518;2023-02-15T12:27:35;12.23;;;9.17;;
69213;SDS011;56325;47.030;18.518;2023-02-15T12:30:15;14.00;;;10.23;;
69213;SDS011;56325;47.030;18.518;2023-02-15T12:32:54;13.83;;;10.23;;
69213;SDS011;56325;47.030;18.518;2023-02-15T12:35:33;19.37;;;11.00;;
69213;SDS011;56325;47.030;18.518;2023-02-15T12:38:19;13.73;;;9.40;;
69213;SDS011;56325;47.030;18.518;2023-02-15T12:40:59;8.37;;;7.37;;
69213;SDS011;56325;47.030;18.518;2023-02-15T12:43:36;12.53;;;8.40;;
69213;SDS011;56325;47.030;18.518;2023-02-15T12:46:21;12.90;;;9.07;;
69213;SDS011;56325;47.030;18.518;2023-02-15T12:49:11;9.20;;;8.23;;
69213;SDS011;56325;47.030;18.518;2023-02-15T12:51:53;9.97;;;8.17;;
69213;SDS011;56325;47.030;18.518;2023-02-15T12:54:30;11.27;;;8.37;;
69213;SDS011;56325;47.030;18.518;2023-02-15T12:57:17;11.55;;;8.50;;
69213;SDS011;56325;47.030;18.518;2023-02-15T12:59:57;10.13;;;8.87;;
69213;SDS011;56325;47.030;18.518;2023-02-15T13:02:36;12.13;;;8.70;;
69213;SDS011;56325;47.030;18.518;2023-02-15T13:05:18;12.90;;;8.70;;
69213;SDS011;56325;47.030;18.518;2023-02-15T13:07:57;17.10;;;10.20;;
69213;SDS011;56325;47.030;18.518;2023-02-15T13:10:36;14.40;;;9.07;;
69213;SDS011;56325;47.030;18.518;2023-02-15T13:13:16;12.43;;;9.27;;
69213;SDS011;56325;47.030;18.518;2023-02-15T13:15:55;14.82;;;9.25;;
69213;SDS011;56325;47.030;18.518;2023-02-15T13:18:34;15.67;;;8.57;;
69213;SDS011;56325;47.030;18.518;2023-02-15T13:21:11;12.97;;;8.70;;
69213;SDS011;56325;47.030;18.518;2023-02-15T13:23:49;15.33;;;9.07;;
69213;SDS011;56325;47.030;18.518;2023-02-15T13:26:26;137.77;;;96.97;;
69213;SDS011;56325;47.030;18.518;2023-02-15T13:29:07;200.20;;;148.13;;
69213;SDS011;56325;47.030;18.518;2023-02-15T13:31:50;11.47;;;9.03;;
69213;SDS011;56325;47.030;18.518;2023-02-15T13:34:28;20.33;;;10.70;;
69213;SDS011;56325;47.030;18.518;2023-02-15T13:37:05;17.97;;;10.07;;
69213;SDS011;56325;47.030;18.518;2023-02-15T13:39:47;14.67;;;8.73;;
69213;SDS011;56325;47.030;18.518;2023-02-15T13:42:27;18.55;;;10.38;;
69213;SDS011;56325;47.030;18.518;2023-02-15T13:45:16;14.60;;;9.50;;
69213;SDS011;56325;47.030;18.518;2023-02-15T13:48:06;10.73;;;8.23;;
69213;SDS011;56325;47.030;18.518;2023-02-15T13:50:52;10.50;;;8.30;;
69213;SDS011;56325;47.030;18.518;2023-02-15T13:53:43;16.07;;;10.20;;
69213;SDS011;56325;47.030;18.518;2023-02-15T13:56:40;16.73;;;11.23;;
69213;SDS011;56325;47.030;18.518;2023-02-15T13:59:28;28.73;;;16.10;;
69213;SDS011;56325;47.030;18.518;2023-02-15T14:02:27;24.42;;;10.75;;
69213;SDS011;56325;47.030;18.518;2023-02-15T14:05:21;23.27;;;12.73;;
69213;SDS011;56325;47.030;18.518;2023-02-15T14:08:08;19.40;;;10.83;;
69213;SDS011;56325;47.030;18.518;2023-02-15T14:10:52;149.00;;;56.20;;
69213;SDS011;56325;47.030;18.518;2023-02-15T14:13:40;48.77;;;19.80;;
69213;SDS011;56325;47.030;18.518;2023-02-15T14:16:45;44.00;;;23.30;;
69213;SDS011;56325;47.030;18.518;2023-02-15T14:19:41;80.63;;;31.70;;
69213;SDS011;56325;47.030;18.518;2023-02-15T14:22:25;41.50;;;16.17;;
69213;SDS011;56325;47.030;18.518;2023-02-15T14:25:12;45.47;;;31.60;;
69213;SDS011;56325;47.030;18.518;2023-02-15T14:27:54;40.03;;;20.40;;
69213;SDS011;56325;47.030;18.518;2023-02-15T14:30:34;19.30;;;12.32;;
69213;SDS011;56325;47.030;18.518;2023-02-15T14:33:19;41.67;;;20.33;;
69213;SDS011;56325;47.030;18.518;2023-02-15T14:36:10;20.10;;;11.57;;
69213;SDS011;56325;47.030;18.518;2023-02-15T14:38:53;17.30;;;10.43;;
69213;SDS011;56325;47.030;18.518;2023-02-15T14:41:36;11.57;;;9.23;;
69213;SDS011;56325;47.030;18.518;2023-02-15T14:46:54;48.47;;;26.23;;
69213;SDS011;56325;47.030;18.518;2023-02-15T14:49:36;72.30;;;32.50;;
69213;SDS011;56325;47.030;18.518;2023-02-15T14:52:14;66.83;;;31.83;;
69213;SDS011;56325;47.030;18.518;2023-02-15T14:54:53;64.17;;;29.47;;
69213;SDS011;56325;47.030;18.518;2023-02-15T14:57:30;73.85;;;34.88;;
69213;SDS011;56325;47.030;18.518;2023-02-15T15:03:20;112.82;;;42.88;;
69213;SDS011;56325;47.030;18.518;2023-02-15T15:05:58;89.95;;;36.08;;
69213;SDS011;56325;47.030;18.518;2023-02-15T15:08:38;49.63;;;22.30;;
69213;SDS011;56325;47.030;18.518;2023-02-15T15:17:41;18.13;;;10.83;;
69213;SDS011;56325;47.030;18.518;2023-02-15T15:20:44;18.30;;;10.90;;
69213;SDS011;56325;47.030;18.518;2023-02-15T15:23:36;287.57;;;136.63;;
69213;SDS011;56325;47.030;18.518;2023-02-15T15:26:21;385.33;;;192.27;;
69213;SDS011;56325;47.030;18.518;2023-02-15T15:29:01;177.97;;;78.07;;
69213;SDS011;56325;47.030;18.518;2023-02-15T15:31:41;30.43;;;17.87;;
69213;SDS011;56325;47.030;18.518;2023-02-15T15:37:42;20.07;;;11.77;;
69213;SDS011;56325;47.030;18.518;2023-02-15T15:43:59;35.70;;;16.13;;
69213;SDS011;56325;47.030;18.518;2023-02-15T15:49:58;17.57;;;11.93;;
69213;SDS011;56325;47.030;18.518;2023-02-15T15:52:33;41.33;;;20.80;;
69213;SDS011;56325;47.030;18.518;2023-02-15T15:55:15;20.23;;;13.40;;
69213;SDS011;56325;47.030;18.518;2023-02-15T15:57:53;20.90;;;12.57;;
69213;SDS011;56325;47.030;18.518;2023-02-15T16:00:31;20.90;;;12.40;;
69213;SDS011;56325;47.030;18.518;2023-02-15T16:03:13;19.58;;;11.65;;
69213;SDS011;56325;47.030;18.518;2023-02-15T16:05:49;19.97;;;12.23;;
69213;SDS011;56325;47.030;18.518;2023-02-15T16:08:29;28.03;;;12.57;;
69213;SDS011;56325;47.030;18.518;2023-02-15T16:11:10;31.87;;;13.90;;